Time;durP1;ratioP1;P1;durP2;ratioP2;P2;SDS_P1;SDS_P2;PMS_P1;PMS_P2;Temp;Humidity;BMP_temperature;BMP_pressure;BME280_temperature;BME280_humidity;BME280_pressure;Samples;Min_cycle;Max_cycle;Signal;HPM_P1;HPM_P2
2021/01/22 00:01:12;;;;;;;11.23;4.23;;;;;;;;;;719034;194;1022086;-70
2021/01/22 00:03:38;;;;;;;9.20;4.07;;;;;;;;;;720507;194;919099;-70
2021/01/22 00:06:04;;;;;;;8.77;4.50;;;;;;;;;;718539;194;918960;-70
2021/01/22 00:08:30;;;;;;;8.90;4.27;;;;;;;;;;717789;192;1021154;-70
2021/01/22 00:10:56;;;;;;;8.80;4.47;;;;;;;;;;727032;193;918550;-71
2021/01/22 00:13:22;;;;;;;13.10;4.37;;;;;;;;;;724964;194;919377;-70
2021/01/22 00:15:48;;;;;;;7.95;4.62;;;;;;;;;;717301;194;918939;-70
2021/01/22 00:18:14;;;;;;;6.73;4.00;;;;;;;;;;723763;194;918742;-70
2021/01/22 00:20:40;;;;;;;10.03;6.17;;;;;;;;;;721414;194;1020710;-70
2021/01/22 00:23:05;;;;;;;11.13;4.33;;;;;;;;;;718835;194;919403;-70
2021/01/22 00:25:32;;;;;;;6.82;4.28;;;;;;;;;;722056;194;919259;-69
2021/01/22 00:27:58;;;;;;;5.07;3.50;;;;;;;;;;729052;189;918888;-70
2021/01/22 00:30:23;;;;;;;13.60;4.43;;;;;;;;;;719668;194;919363;-70
2021/01/22 00:32:51;;;;;;;8.87;3.87;;;;;;;;;;718600;194;919575;-71
2021/01/22 00:35:17;;;;;;;11.55;5.10;;;;;;;;;;721959;194;920260;-70
2021/01/22 00:37:43;;;;;;;16.13;5.47;;;;;;;;;;715738;194;916087;-70
2021/01/22 00:40:09;;;;;;;10.38;5.07;;;;;;;;;;716547;194;910560;-70
2021/01/22 00:42:35;;;;;;;7.97;4.93;;;;;;;;;;722763;194;912124;-69
2021/01/22 00:45:01;;;;;;;5.77;3.40;;;;;;;;;;718185;194;910694;-70
2021/01/22 00:47:27;;;;;;;12.40;4.57;;;;;;;;;;719694;194;919072;-70
2021/01/22 00:49:53;;;;;;;6.78;4.07;;;;;;;;;;719172;194;916980;-69
2021/01/22 00:52:19;;;;;;;9.73;4.53;;;;;;;;;;726364;194;908991;-70
2021/01/22 00:54:45;;;;;;;8.60;4.77;;;;;;;;;;714946;194;915637;-70
2021/01/22 00:57:11;;;;;;;8.73;5.00;;;;;;;;;;728847;191;915657;-71
2021/01/22 00:59:37;;;;;;;11.70;5.00;;;;;;;;;;721652;194;919408;-69
2021/01/22 01:02:03;;;;;;;6.37;3.60;;;;;;;;;;717976;194;919160;-69
2021/01/22 01:04:28;;;;;;;10.97;6.60;;;;;;;;;;716845;194;918179;-70
2021/01/22 01:06:54;;;;;;;15.53;6.90;;;;;;;;;;721312;194;919466;-69
2021/01/22 01:09:22;;;;;;;23.03;10.03;;;;;;;;;;715981;194;919143;-70
2021/01/22 01:11:47;;;;;;;9.20;4.50;;;;;;;;;;713124;194;919473;-71
2021/01/22 01:14:14;;;;;;;10.95;5.07;;;;;;;;;;723883;194;919263;-69
2021/01/22 01:16:40;;;;;;;9.10;4.47;;;;;;;;;;722083;194;919050;-71
2021/01/22 01:19:06;;;;;;;14.47;4.97;;;;;;;;;;717397;193;1022106;-70
2021/01/22 01:21:32;;;;;;;5.63;4.30;;;;;;;;;;711849;193;1669909;-70
2021/01/22 01:23:57;;;;;;;6.57;3.60;;;;;;;;;;720674;194;919385;-72
2021/01/22 01:26:23;;;;;;;17.97;4.43;;;;;;;;;;716993;194;919171;-70
2021/01/22 01:28:49;;;;;;;7.37;3.90;;;;;;;;;;721350;194;919792;-70
2021/01/22 01:31:15;;;;;;;9.03;4.47;;;;;;;;;;722664;194;1018433;-70
2021/01/22 01:33:41;;;;;;;15.38;4.97;;;;;;;;;;718870;194;1023964;-71
2021/01/22 01:36:07;;;;;;;6.73;4.00;;;;;;;;;;717530;194;918633;-70
2021/01/22 01:38:33;;;;;;;7.00;3.27;;;;;;;;;;725155;194;919578;-70
2021/01/22 01:40:59;;;;;;;5.97;3.72;;;;;;;;;;716505;194;1453356;-70
2021/01/22 01:43:24;;;;;;;6.97;3.95;;;;;;;;;;721127;194;918996;-70
2021/01/22 01:45:50;;;;;;;7.40;3.83;;;;;;;;;;717352;194;918532;-70
2021/01/22 01:48:16;;;;;;;9.27;4.03;;;;;;;;;;710379;197;918691;-70
2021/01/22 01:50:42;;;;;;;7.37;2.87;;;;;;;;;;706339;197;919886;-70
2021/01/22 01:53:08;;;;;;;10.20;3.70;;;;;;;;;;705016;194;924631;-69
2021/01/22 01:55:34;;;;;;;5.03;3.30;;;;;;;;;;711316;197;920227;-70
2021/01/22 01:58:00;;;;;;;7.30;3.97;;;;;;;;;;704994;195;919233;-70
2021/01/22 02:00:26;;;;;;;5.43;3.10;;;;;;;;;;704082;197;919407;-70
2021/01/22 02:02:52;;;;;;;8.10;3.70;;;;;;;;;;708593;197;916825;-70
2021/01/22 02:05:18;;;;;;;3.90;2.70;;;;;;;;;;708484;197;918359;-70
2021/01/22 02:07:44;;;;;;;13.05;3.55;;;;;;;;;;702322;194;1726835;-70
2021/01/22 02:10:10;;;;;;;7.35;4.00;;;;;;;;;;707200;197;916953;-69
2021/01/22 02:12:36;;;;;;;5.80;3.17;;;;;;;;;;710622;194;925562;-70
2021/01/22 02:15:02;;;;;;;6.67;3.80;;;;;;;;;;705405;197;916002;-71
2021/01/22 02:17:30;;;;;;;14.53;4.53;;;;;;;;;;700819;194;916487;-70
2021/01/22 02:19:55;;;;;;;9.00;3.63;;;;;;;;;;710892;197;918901;-70
2021/01/22 02:22:21;;;;;;;8.50;4.40;;;;;;;;;;703978;197;919485;-71
2021/01/22 02:24:47;;;;;;;8.68;4.12;;;;;;;;;;706738;197;918258;-70
2021/01/22 02:27:17;;;;;;;5.60;3.50;;;;;;;;;;711189;197;919276;-70
2021/01/22 02:29:43;;;;;;;10.10;3.77;;;;;;;;;;699069;198;1511142;-70
2021/01/22 02:32:08;;;;;;;5.53;3.40;;;;;;;;;;706821;197;918695;-70
2021/01/22 02:34:37;;;;;;;5.70;2.93;;;;;;;;;;707403;194;919233;-70
2021/01/22 02:37:00;;;;;;;6.80;4.37;;;;;;;;;;714831;197;919206;-70
2021/01/22 02:39:26;;;;;;;9.35;4.15;;;;;;;;;;707319;194;919453;-70
2021/01/22 02:41:52;;;;;;;6.10;3.00;;;;;;;;;;708755;197;919321;-70
2021/01/22 02:44:18;;;;;;;8.20;4.43;;;;;;;;;;710600;197;918860;-71
2021/01/22 02:46:44;;;;;;;6.57;3.87;;;;;;;;;;706408;197;920238;-71
2021/01/22 02:49:09;;;;;;;10.93;3.97;;;;;;;;;;705414;197;918534;-71
2021/01/22 02:51:35;;;;;;;5.70;3.17;;;;;;;;;;709107;197;1021543;-70
2021/01/22 02:54:01;;;;;;;6.20;3.83;;;;;;;;;;715585;194;918260;-70
2021/01/22 02:56:27;;;;;;;7.30;3.93;;;;;;;;;;707468;197;919221;-71
2021/01/22 02:58:53;;;;;;;5.55;3.97;;;;;;;;;;707222;197;919042;-69
2021/01/22 03:01:20;;;;;;;5.37;4.40;;;;;;;;;;719512;194;918790;-70
2021/01/22 03:03:46;;;;;;;14.57;4.20;;;;;;;;;;695931;197;919834;-71
2021/01/22 03:06:12;;;;;;;9.50;3.97;;;;;;;;;;707992;197;919179;-70
2021/01/22 03:08:37;;;;;;;7.47;4.10;;;;;;;;;;711402;198;917783;-70
2021/01/22 03:11:03;;;;;;;11.47;3.83;;;;;;;;;;704365;197;919610;-71
2021/01/22 03:13:29;;;;;;;7.27;3.63;;;;;;;;;;705064;197;1021557;-70
2021/01/22 03:15:56;;;;;;;7.33;4.20;;;;;;;;;;708573;194;918291;-70
2021/01/22 03:18:22;;;;;;;7.40;3.70;;;;;;;;;;704507;198;919595;-71
2021/01/22 03:20:47;;;;;;;7.37;3.77;;;;;;;;;;704456;194;919483;-70
2021/01/22 03:23:15;;;;;;;15.30;3.90;;;;;;;;;;707410;197;1014407;-69
2021/01/22 03:25:41;;;;;;;5.37;3.40;;;;;;;;;;719438;194;915589;-70
2021/01/22 03:28:07;;;;;;;10.02;4.85;;;;;;;;;;705087;198;919538;-70
2021/01/22 03:30:32;;;;;;;11.38;3.45;;;;;;;;;;720150;192;919927;-70
2021/01/22 03:32:58;;;;;;;5.00;3.03;;;;;;;;;;712234;197;918848;-70
2021/01/22 03:35:24;;;;;;;8.03;3.17;;;;;;;;;;703247;195;1271068;-69
2021/01/22 03:37:50;;;;;;;8.43;3.63;;;;;;;;;;706161;197;1019805;-70
2021/01/22 03:40:16;;;;;;;10.93;3.77;;;;;;;;;;709122;195;919070;-69
2021/01/22 03:42:45;;;;;;;7.03;3.83;;;;;;;;;;707079;197;919511;-70
2021/01/22 03:45:11;;;;;;;3.73;2.77;;;;;;;;;;708093;195;918696;-70
2021/01/22 03:47:37;;;;;;;7.70;3.43;;;;;;;;;;708408;194;918814;-69
2021/01/22 03:50:03;;;;;;;5.53;3.10;;;;;;;;;;711401;198;918991;-70
2021/01/22 03:52:29;;;;;;;7.10;3.60;;;;;;;;;;705170;197;918969;-70
2021/01/22 03:54:54;;;;;;;6.23;3.23;;;;;;;;;;704282;198;941320;-71
2021/01/22 03:57:20;;;;;;;19.20;3.80;;;;;;;;;;708195;197;1482080;-69
2021/01/22 03:59:46;;;;;;;7.40;3.00;;;;;;;;;;707762;197;919589;-70
2021/01/22 04:02:12;;;;;;;4.93;3.37;;;;;;;;;;704345;197;916073;-69
2021/01/22 04:04:38;;;;;;;8.20;3.43;;;;;;;;;;711540;197;916382;-69
2021/01/22 04:07:04;;;;;;;6.07;3.10;;;;;;;;;;704017;197;919839;-69
2021/01/22 04:09:30;;;;;;;8.18;3.37;;;;;;;;;;706527;197;917829;-70
2021/01/22 04:11:55;;;;;;;11.13;3.70;;;;;;;;;;710152;197;915750;-69
2021/01/22 04:14:21;;;;;;;8.33;3.57;;;;;;;;;;708901;197;920694;-69
2021/01/22 04:16:47;;;;;;;7.03;3.07;;;;;;;;;;700172;197;2667883;-68
2021/01/22 04:19:13;;;;;;;6.70;3.17;;;;;;;;;;708323;197;920617;-68
2021/01/22 04:21:41;;;;;;;5.53;3.00;;;;;;;;;;711402;194;919104;-69
2021/01/22 04:24:07;;;;;;;7.53;3.90;;;;;;;;;;706612;194;917507;-70
2021/01/22 04:26:33;;;;;;;12.10;4.20;;;;;;;;;;705456;197;920110;-70
2021/01/22 04:28:59;;;;;;;6.20;3.27;;;;;;;;;;709459;194;919142;-69
2021/01/22 04:31:25;;;;;;;6.10;3.50;;;;;;;;;;706256;197;919117;-69
2021/01/22 04:33:51;;;;;;;4.30;2.80;;;;;;;;;;703996;194;918971;-69
2021/01/22 04:36:17;;;;;;;11.50;3.07;;;;;;;;;;712223;197;917112;-69
2021/01/22 04:38:42;;;;;;;9.10;3.40;;;;;;;;;;705246;197;1024805;-69
2021/01/22 04:41:08;;;;;;;5.90;3.07;;;;;;;;;;708436;197;919520;-69
2021/01/22 04:43:38;;;;;;;7.40;3.50;;;;;;;;;;704450;195;919604;-68
2021/01/22 04:46:00;;;;;;;6.23;3.20;;;;;;;;;;710438;197;914300;-69
2021/01/22 04:48:26;;;;;;;4.13;2.70;;;;;;;;;;703491;195;1024440;-69
2021/01/22 04:50:52;;;;;;;5.30;3.40;;;;;;;;;;706733;197;917608;-69
2021/01/22 04:53:17;;;;;;;7.53;3.03;;;;;;;;;;709694;195;911798;-69
2021/01/22 04:55:43;;;;;;;4.20;2.83;;;;;;;;;;708648;197;911451;-69
2021/01/22 04:58:10;;;;;;;5.27;3.10;;;;;;;;;;706836;197;1013208;-70
2021/01/22 05:00:36;;;;;;;6.93;4.10;;;;;;;;;;713141;197;919315;-69
2021/01/22 05:03:02;;;;;;;11.77;3.27;;;;;;;;;;709877;197;919877;-70
2021/01/22 05:05:28;;;;;;;11.95;3.00;;;;;;;;;;700200;197;2180696;-69
2021/01/22 05:07:53;;;;;;;5.87;3.07;;;;;;;;;;706698;197;918733;-68
2021/01/22 05:10:19;;;;;;;3.13;2.30;;;;;;;;;;711505;197;635903;-69
2021/01/22 05:12:45;;;;;;;7.23;3.07;;;;;;;;;;710365;197;634815;-69
2021/01/22 05:15:14;;;;;;;8.13;3.73;;;;;;;;;;708175;197;644806;-68
2021/01/22 05:17:45;;;;;;;6.70;3.30;;;;;;;;;;713665;197;625182;-69
2021/01/22 05:20:12;;;;;;;5.70;2.90;;;;;;;;;;709376;197;671569;-70
2021/01/22 05:22:37;;;;;;;5.82;2.87;;;;;;;;;;705790;197;918805;-69
2021/01/22 05:25:04;;;;;;;6.00;3.23;;;;;;;;;;705786;194;1258972;-68
2021/01/22 05:27:29;;;;;;;5.43;4.93;;;;;;;;;;713554;197;877491;-69
2021/01/22 05:29:55;;;;;;;5.90;2.70;;;;;;;;;;705097;194;918768;-69
2021/01/22 05:32:24;;;;;;;4.77;2.83;;;;;;;;;;706308;197;930272;-69
2021/01/22 05:34:50;;;;;;;3.40;2.37;;;;;;;;;;709959;195;919322;-69
2021/01/22 05:37:16;;;;;;;5.27;2.50;;;;;;;;;;705441;197;918606;-69
2021/01/22 05:39:43;;;;;;;8.38;2.87;;;;;;;;;;704275;197;919159;-71
2021/01/22 05:42:10;;;;;;;3.80;2.67;;;;;;;;;;708685;195;921849;-69
2021/01/22 05:44:35;;;;;;;7.90;3.10;;;;;;;;;;721067;192;920266;-69
2021/01/22 05:47:01;;;;;;;6.40;3.30;;;;;;;;;;704424;196;1040951;-69
2021/01/22 05:49:27;;;;;;;7.50;3.53;;;;;;;;;;719435;194;920000;-69
2021/01/22 05:51:52;;;;;;;7.40;3.10;;;;;;;;;;709746;197;919053;-69
2021/01/22 05:54:24;;;;;;;4.70;2.83;;;;;;;;;;707397;197;916016;-69
2021/01/22 05:56:58;;;;;;;5.05;2.87;;;;;;;;;;704982;197;916896;-69
2021/01/22 05:59:24;;;;;;;6.93;3.30;;;;;;;;;;706259;197;915970;-68
2021/01/22 06:01:50;;;;;;;5.10;2.70;;;;;;;;;;709981;197;914836;-69
2021/01/22 06:04:16;;;;;;;7.65;3.55;;;;;;;;;;705809;197;919460;-69
2021/01/22 06:06:41;;;;;;;10.53;3.00;;;;;;;;;;704817;196;919096;-69
2021/01/22 06:09:07;;;;;;;6.50;2.73;;;;;;;;;;714708;197;919497;-70
2021/01/22 06:11:33;;;;;;;5.03;2.60;;;;;;;;;;709033;194;919444;-70
2021/01/22 06:13:59;;;;;;;4.22;2.90;;;;;;;;;;707837;197;920639;-69
2021/01/22 06:16:26;;;;;;;8.80;2.93;;;;;;;;;;709853;194;1021747;-69
2021/01/22 06:19:01;;;;;;;9.93;3.00;;;;;;;;;;708618;197;919062;-69
2021/01/22 06:21:29;;;;;;;5.33;2.93;;;;;;;;;;705238;194;920638;-70
2021/01/22 06:23:55;;;;;;;4.80;3.10;;;;;;;;;;707463;197;919336;-70
2021/01/22 06:26:21;;;;;;;14.60;5.33;;;;;;;;;;712152;197;921200;-72
2021/01/22 06:28:49;;;;;;;5.37;2.57;;;;;;;;;;706014;197;908082;-71
2021/01/22 06:31:15;;;;;;;10.20;3.58;;;;;;;;;;706006;197;941588;-70
2021/01/22 06:33:40;;;;;;;4.50;2.77;;;;;;;;;;705080;194;941447;-69
2021/01/22 06:36:07;;;;;;;4.97;3.17;;;;;;;;;;712712;197;919306;-71
2021/01/22 06:38:33;;;;;;;9.70;3.23;;;;;;;;;;705058;194;919311;-71
2021/01/22 06:40:59;;;;;;;4.80;2.73;;;;;;;;;;708718;197;914070;-71
2021/01/22 06:43:24;;;;;;;3.60;2.50;;;;;;;;;;706770;194;920899;-71
2021/01/22 06:45:50;;;;;;;5.33;3.00;;;;;;;;;;705681;198;922201;-71
2021/01/22 06:48:16;;;;;;;8.47;3.00;;;;;;;;;;704990;197;918935;-72
2021/01/22 06:50:42;;;;;;;14.60;3.17;;;;;;;;;;711184;197;925738;-71
2021/01/22 06:53:09;;;;;;;9.27;3.60;;;;;;;;;;704562;197;919308;-70
2021/01/22 06:55:49;;;;;;;10.37;3.07;;;;;;;;;;705286;197;918623;-71
2021/01/22 06:58:21;;;;;;;8.73;4.03;;;;;;;;;;704172;197;920250;-70
2021/01/22 07:00:47;;;;;;;5.93;3.10;;;;;;;;;;706768;197;919010;-71
2021/01/22 07:03:31;;;;;;;9.30;4.03;;;;;;;;;;711229;197;918106;-71
2021/01/22 07:05:57;;;;;;;5.70;3.83;;;;;;;;;;709803;197;916539;-71
2021/01/22 07:08:23;;;;;;;7.07;3.17;;;;;;;;;;704570;195;918221;-71
2021/01/22 07:10:55;;;;;;;29.13;15.43;;;;;;;;;;705652;197;920455;-70
2021/01/22 07:13:27;;;;;;;39.33;17.27;;;;;;;;;;704701;194;938958;-69
2021/01/22 07:15:53;;;;;;;69.07;27.03;;;;;;;;;;713078;197;919297;-72
2021/01/22 07:18:18;;;;;;;94.77;32.80;;;;;;;;;;706351;196;918981;-71
2021/01/22 07:20:44;;;;;;;92.37;32.87;;;;;;;;;;705132;193;919191;-71
2021/01/22 07:23:10;;;;;;;90.43;31.80;;;;;;;;;;713532;197;919237;-69
2021/01/22 07:25:37;;;;;;;103.30;37.90;;;;;;;;;;695079;197;919450;-70
2021/01/22 07:28:04;;;;;;;163.07;55.47;;;;;;;;;;696548;201;918911;-71
2021/01/22 07:30:45;;;;;;;108.87;40.90;;;;;;;;;;693910;197;937167;-71
2021/01/22 07:33:17;;;;;;;113.10;41.10;;;;;;;;;;696112;201;918561;-70
2021/01/22 07:35:42;;;;;;;69.57;31.80;;;;;;;;;;697294;200;1124161;-71
2021/01/22 07:38:08;;;;;;;59.73;26.17;;;;;;;;;;694274;201;916050;-71
2021/01/22 07:40:34;;;;;;;36.23;19.37;;;;;;;;;;690499;201;920889;-71
2021/01/22 07:43:00;;;;;;;72.60;35.63;;;;;;;;;;709976;197;917977;-71
2021/01/22 07:45:26;;;;;;;33.87;16.17;;;;;;;;;;704951;197;916476;-71
2021/01/22 07:47:52;;;;;;;54.20;29.40;;;;;;;;;;706936;197;916116;-70
2021/01/22 07:50:18;;;;;;;45.08;20.20;;;;;;;;;;703484;197;912854;-70
2021/01/22 07:52:44;;;;;;;39.67;19.20;;;;;;;;;;716099;194;918364;-70
2021/01/22 07:55:14;;;;;;;47.17;20.93;;;;;;;;;;692154;201;919917;-71
2021/01/22 07:57:40;;;;;;;21.50;11.17;;;;;;;;;;694709;201;919320;-70
2021/01/22 08:00:10;;;;;;;20.50;11.20;;;;;;;;;;710412;194;950832;-71
2021/01/22 08:02:35;;;;;;;34.67;18.57;;;;;;;;;;693866;197;3371182;-70
2021/01/22 08:05:01;;;;;;;27.13;13.27;;;;;;;;;;694623;200;920667;-70
2021/01/22 08:07:31;;;;;;;25.20;14.70;;;;;;;;;;698381;194;915547;-70
2021/01/22 08:09:57;;;;;;;29.50;17.20;;;;;;;;;;712590;195;914687;-70
2021/01/22 08:12:23;;;;;;;28.30;15.18;;;;;;;;;;698643;197;916272;-70
2021/01/22 08:14:50;;;;;;;35.10;17.77;;;;;;;;;;700651;197;924248;-69
2021/01/22 08:17:14;;;;;;;19.77;12.03;;;;;;;;;;702893;197;913277;-69
2021/01/22 08:19:40;;;;;;;23.70;13.53;;;;;;;;;;703412;198;919161;-69
2021/01/22 08:22:06;;;;;;;24.67;15.00;;;;;;;;;;716329;189;1638614;-69
2021/01/22 08:24:32;;;;;;;16.37;10.30;;;;;;;;;;726025;192;919798;-69
2021/01/22 08:26:58;;;;;;;16.20;9.83;;;;;;;;;;720299;191;919360;-69
2021/01/22 08:29:24;;;;;;;10.73;5.15;;;;;;;;;;719516;192;919480;-70
2021/01/22 08:31:50;;;;;;;7.10;3.40;;;;;;;;;;720944;190;919020;-69
2021/01/22 08:34:16;;;;;;;8.77;3.67;;;;;;;;;;713509;197;920957;-69
2021/01/22 08:36:42;;;;;;;8.17;3.73;;;;;;;;;;705568;194;919786;-69
2021/01/22 08:39:08;;;;;;;9.20;2.80;;;;;;;;;;707454;197;920421;-69
2021/01/22 08:41:35;;;;;;;6.73;2.87;;;;;;;;;;712556;197;896969;-70
2021/01/22 08:44:00;;;;;;;5.40;2.97;;;;;;;;;;702050;197;1671149;-69
2021/01/22 08:46:25;;;;;;;5.90;2.53;;;;;;;;;;704932;198;918138;-69
2021/01/22 08:48:51;;;;;;;5.00;3.43;;;;;;;;;;710501;194;911924;-70
2021/01/22 08:51:23;;;;;;;4.30;2.73;;;;;;;;;;707722;197;1021431;-69
2021/01/22 08:53:50;;;;;;;5.53;3.20;;;;;;;;;;707241;194;919126;-69
2021/01/22 08:56:17;;;;;;;6.62;2.78;;;;;;;;;;706987;197;1020967;-69
2021/01/22 08:58:49;;;;;;;3.77;2.33;;;;;;;;;;709049;194;918779;-69
2021/01/22 09:01:14;;;;;;;8.30;3.67;;;;;;;;;;707744;197;917634;-69
2021/01/22 09:03:40;;;;;;;4.43;2.00;;;;;;;;;;704559;197;919178;-70
2021/01/22 09:06:06;;;;;;;8.20;3.40;;;;;;;;;;708517;197;918684;-69
2021/01/22 09:08:33;;;;;;;8.87;2.90;;;;;;;;;;703624;194;918435;-70
2021/01/22 09:10:58;;;;;;;6.93;2.20;;;;;;;;;;706678;198;919585;-69
2021/01/22 09:13:26;;;;;;;4.97;2.37;;;;;;;;;;700202;196;1121959;-68
2021/01/22 09:15:50;;;;;;;11.50;2.80;;;;;;;;;;721205;194;918941;-69
2021/01/22 09:18:20;;;;;;;6.07;3.00;;;;;;;;;;699472;196;919297;-70
2021/01/22 09:21:01;;;;;;;3.40;2.00;;;;;;;;;;721519;192;918985;-68
2021/01/22 09:23:27;;;;;;;7.10;2.97;;;;;;;;;;702316;197;919536;-70
2021/01/22 09:25:53;;;;;;;7.80;2.50;;;;;;;;;;710177;197;919291;-70
2021/01/22 09:28:19;;;;;;;4.27;2.40;;;;;;;;;;702970;197;1738707;-70
2021/01/22 09:30:45;;;;;;;11.13;4.20;;;;;;;;;;700147;194;956881;-69
2021/01/22 09:33:10;;;;;;;5.90;2.27;;;;;;;;;;704450;197;925028;-70
2021/01/22 09:35:36;;;;;;;5.03;2.03;;;;;;;;;;705113;197;919150;-70
2021/01/22 09:38:02;;;;;;;8.47;2.70;;;;;;;;;;705804;197;917084;-70
2021/01/22 09:40:29;;;;;;;11.43;2.40;;;;;;;;;;704299;197;915663;-70
2021/01/22 09:42:54;;;;;;;7.63;2.50;;;;;;;;;;712904;197;911750;-70
2021/01/22 09:45:20;;;;;;;5.33;2.50;;;;;;;;;;708033;197;911687;-71
2021/01/22 09:47:46;;;;;;;5.13;2.63;;;;;;;;;;707368;197;919188;-70
2021/01/22 09:50:12;;;;;;;6.40;2.73;;;;;;;;;;705973;194;1689285;-70
2021/01/22 09:52:38;;;;;;;4.60;2.00;;;;;;;;;;707850;197;919320;-69
2021/01/22 09:55:04;;;;;;;4.00;2.13;;;;;;;;;;704263;194;919928;-70
2021/01/22 09:57:30;;;;;;;5.95;2.72;;;;;;;;;;708439;197;919466;-69
2021/01/22 09:59:56;;;;;;;4.37;2.73;;;;;;;;;;710730;197;918975;-70
2021/01/22 10:02:22;;;;;;;5.05;2.37;;;;;;;;;;703325;197;919174;-72
2021/01/22 10:04:48;;;;;;;3.47;2.40;;;;;;;;;;701595;197;1024609;-69
2021/01/22 10:07:14;;;;;;;5.30;2.40;;;;;;;;;;703803;198;920962;-70
2021/01/22 10:09:39;;;;;;;4.40;2.40;;;;;;;;;;700512;198;919836;-68
2021/01/22 10:12:07;;;;;;;5.10;2.33;;;;;;;;;;697919;194;2132116;-69
2021/01/22 10:14:31;;;;;;;3.30;2.10;;;;;;;;;;711783;197;919506;-69
2021/01/22 10:16:57;;;;;;;2.90;1.83;;;;;;;;;;701279;194;922650;-70
2021/01/22 10:19:23;;;;;;;7.03;2.92;;;;;;;;;;720960;192;919116;-70
2021/01/22 10:21:49;;;;;;;6.57;2.53;;;;;;;;;;709775;194;919936;-71
2021/01/22 10:24:16;;;;;;;5.53;2.57;;;;;;;;;;709200;197;914836;-70
2021/01/22 10:26:40;;;;;;;4.63;2.10;;;;;;;;;;707269;194;915441;-69
2021/01/22 10:29:06;;;;;;;3.85;2.28;;;;;;;;;;706886;197;915148;-69
2021/01/22 10:31:32;;;;;;;6.90;2.47;;;;;;;;;;702717;195;1743616;-69
2021/01/22 10:33:59;;;;;;;4.37;2.33;;;;;;;;;;705469;198;979420;-69
2021/01/22 10:36:24;;;;;;;3.77;2.13;;;;;;;;;;705108;194;916543;-69
2021/01/22 10:38:50;;;;;;;6.43;2.87;;;;;;;;;;712305;197;912752;-68
2021/01/22 10:41:15;;;;;;;4.07;2.53;;;;;;;;;;705901;197;912146;-68
2021/01/22 10:43:41;;;;;;;8.37;2.50;;;;;;;;;;703830;194;919215;-68
2021/01/22 10:46:07;;;;;;;7.30;2.60;;;;;;;;;;711868;197;918649;-68
2021/01/22 10:48:33;;;;;;;5.80;2.40;;;;;;;;;;706295;194;919348;-68
2021/01/22 10:50:59;;;;;;;4.90;2.35;;;;;;;;;;706533;197;1020353;-68
2021/01/22 10:53:25;;;;;;;4.53;2.30;;;;;;;;;;710512;196;919071;-68
2021/01/22 10:55:50;;;;;;;6.30;2.40;;;;;;;;;;708182;197;918748;-68
2021/01/22 10:58:16;;;;;;;5.90;2.10;;;;;;;;;;705407;197;949606;-68
2021/01/22 11:00:42;;;;;;;6.10;2.30;;;;;;;;;;707430;197;919097;-68
2021/01/22 11:03:08;;;;;;;6.47;3.30;;;;;;;;;;709531;197;918728;-69
2021/01/22 11:05:34;;;;;;;2.78;2.17;;;;;;;;;;707133;197;940361;-68
2021/01/22 11:08:00;;;;;;;5.10;2.10;;;;;;;;;;704280;197;919445;-68
2021/01/22 11:10:25;;;;;;;4.70;2.50;;;;;;;;;;712727;197;919116;-68
2021/01/22 11:12:51;;;;;;;7.63;2.20;;;;;;;;;;707285;197;919027;-68
2021/01/22 11:15:17;;;;;;;7.73;2.40;;;;;;;;;;710113;197;918361;-70
2021/01/22 11:17:46;;;;;;;8.43;3.20;;;;;;;;;;712628;194;918741;-72
2021/01/22 11:20:12;;;;;;;5.23;2.63;;;;;;;;;;707346;197;918363;-70
2021/01/22 11:22:38;;;;;;;7.17;2.33;;;;;;;;;;708971;197;918411;-70
2021/01/22 11:25:04;;;;;;;3.63;2.03;;;;;;;;;;706121;194;919036;-69
2021/01/22 11:27:30;;;;;;;6.07;4.20;;;;;;;;;;711433;197;919011;-70
2021/01/22 11:29:57;;;;;;;4.80;2.13;;;;;;;;;;704769;194;919200;-70
2021/01/22 11:32:22;;;;;;;5.73;2.67;;;;;;;;;;709835;197;913597;-70
2021/01/22 11:34:48;;;;;;;9.23;2.57;;;;;;;;;;710650;195;918865;-69
2021/01/22 11:37:14;;;;;;;10.13;3.17;;;;;;;;;;707376;197;919264;-69
2021/01/22 11:39:40;;;;;;;6.03;3.30;;;;;;;;;;702922;194;1414267;-70
2021/01/22 11:42:06;;;;;;;13.90;2.90;;;;;;;;;;711159;197;920133;-70
2021/01/22 11:44:32;;;;;;;9.33;2.70;;;;;;;;;;706477;194;914055;-70
2021/01/22 11:46:58;;;;;;;8.20;2.97;;;;;;;;;;706800;197;937744;-68
2021/01/22 11:49:23;;;;;;;4.37;3.07;;;;;;;;;;704931;194;919410;-67
2021/01/22 11:51:49;;;;;;;6.67;3.50;;;;;;;;;;721562;192;633510;-68
2021/01/22 11:54:15;;;;;;;6.07;2.57;;;;;;;;;;708181;197;640748;-68
2021/01/22 11:56:41;;;;;;;6.00;3.70;;;;;;;;;;708346;197;639830;-67
2021/01/22 11:59:08;;;;;;;8.00;3.60;;;;;;;;;;714024;197;611537;-68
2021/01/22 12:01:33;;;;;;;5.97;3.03;;;;;;;;;;707433;197;700567;-67
2021/01/22 12:03:59;;;;;;;6.50;2.83;;;;;;;;;;710539;197;640253;-67
2021/01/22 12:06:25;;;;;;;10.80;3.80;;;;;;;;;;711248;194;919112;-67
2021/01/22 12:08:50;;;;;;;7.60;3.80;;;;;;;;;;706108;197;919750;-70
2021/01/22 12:11:16;;;;;;;10.40;3.40;;;;;;;;;;706516;194;919459;-70
2021/01/22 12:13:42;;;;;;;8.27;3.43;;;;;;;;;;713772;197;919396;-69
2021/01/22 12:16:08;;;;;;;5.70;3.10;;;;;;;;;;706977;194;918751;-70
2021/01/22 12:18:34;;;;;;;9.67;3.50;;;;;;;;;;711026;197;919468;-70
2021/01/22 12:21:00;;;;;;;8.10;4.27;;;;;;;;;;705638;197;1021661;-72
2021/01/22 12:23:26;;;;;;;7.33;3.57;;;;;;;;;;713411;197;918750;-68
2021/01/22 12:25:52;;;;;;;4.97;3.13;;;;;;;;;;703365;194;942777;-68
2021/01/22 12:28:17;;;;;;;5.70;3.03;;;;;;;;;;703604;197;1021028;-68
2021/01/22 12:30:43;;;;;;;5.10;2.93;;;;;;;;;;708997;194;919336;-67
2021/01/22 12:33:09;;;;;;;8.23;3.07;;;;;;;;;;701452;197;1941684;-68
2021/01/22 12:35:35;;;;;;;11.27;3.40;;;;;;;;;;706365;197;919512;-67
2021/01/22 12:38:01;;;;;;;5.23;2.70;;;;;;;;;;709614;194;918973;-67
2021/01/22 12:40:27;;;;;;;6.83;5.33;;;;;;;;;;709185;197;918676;-67
2021/01/22 12:42:53;;;;;;;6.10;3.40;;;;;;;;;;708037;197;919748;-67
2021/01/22 12:45:20;;;;;;;7.53;3.73;;;;;;;;;;707405;197;920177;-67
2021/01/22 12:47:44;;;;;;;7.80;3.17;;;;;;;;;;711618;196;919583;-69
2021/01/22 12:50:11;;;;;;;11.37;3.37;;;;;;;;;;699113;201;922076;-68
2021/01/22 12:52:38;;;;;;;9.73;3.37;;;;;;;;;;706601;195;919304;-67
2021/01/22 12:55:03;;;;;;;6.97;3.20;;;;;;;;;;712475;197;917054;-68
2021/01/22 12:57:29;;;;;;;3.97;3.00;;;;;;;;;;704530;195;919740;-67
2021/01/22 12:59:54;;;;;;;7.00;2.97;;;;;;;;;;706103;197;918482;-67
2021/01/22 13:02:20;;;;;;;10.73;4.07;;;;;;;;;;708822;195;919684;-66
2021/01/22 13:04:46;;;;;;;7.37;3.33;;;;;;;;;;703765;197;919607;-67
2021/01/22 13:07:12;;;;;;;5.80;3.73;;;;;;;;;;701363;197;1512912;-67
2021/01/22 13:09:38;;;;;;;6.93;3.20;;;;;;;;;;710495;197;1063063;-67
2021/01/22 13:12:05;;;;;;;7.93;3.77;;;;;;;;;;708335;197;914424;-67
2021/01/22 13:14:31;;;;;;;8.63;3.13;;;;;;;;;;706194;197;916174;-67
2021/01/22 13:16:57;;;;;;;5.80;3.73;;;;;;;;;;708210;195;902154;-67
2021/01/22 13:19:22;;;;;;;13.40;3.60;;;;;;;;;;713449;197;638263;-67
2021/01/22 13:21:48;;;;;;;5.90;3.83;;;;;;;;;;710605;197;837518;-66
2021/01/22 13:24:14;;;;;;;6.20;3.47;;;;;;;;;;707228;197;918252;-67
2021/01/22 13:26:40;;;;;;;8.97;3.23;;;;;;;;;;711928;197;919436;-67
2021/01/22 13:29:06;;;;;;;8.80;4.70;;;;;;;;;;704197;197;1021658;-67
2021/01/22 13:31:32;;;;;;;5.57;3.27;;;;;;;;;;708167;197;919292;-67
2021/01/22 13:33:57;;;;;;;6.93;3.27;;;;;;;;;;712997;194;637359;-68
2021/01/22 13:36:23;;;;;;;15.23;3.40;;;;;;;;;;707811;197;919371;-67
2021/01/22 13:38:49;;;;;;;4.93;3.83;;;;;;;;;;705763;194;918221;-67
2021/01/22 13:41:15;;;;;;;5.53;3.63;;;;;;;;;;706818;197;919416;-67
2021/01/22 13:43:41;;;;;;;12.60;4.33;;;;;;;;;;708949;194;918446;-68
2021/01/22 13:46:07;;;;;;;6.37;4.10;;;;;;;;;;705785;197;918249;-68
2021/01/22 13:48:35;;;;;;;10.03;4.40;;;;;;;;;;706496;197;919355;-68
2021/01/22 13:51:01;;;;;;;8.10;3.67;;;;;;;;;;709356;197;918143;-68
2021/01/22 13:53:26;;;;;;;8.33;4.90;;;;;;;;;;709190;197;918928;-68
2021/01/22 13:55:52;;;;;;;8.70;3.85;;;;;;;;;;704290;197;1020033;-68
2021/01/22 13:58:18;;;;;;;7.43;3.73;;;;;;;;;;711055;197;919096;-67
2021/01/22 14:00:44;;;;;;;12.30;3.40;;;;;;;;;;709726;195;816639;-68
2021/01/22 14:03:10;;;;;;;6.80;3.30;;;;;;;;;;709678;197;919854;-67
2021/01/22 14:05:36;;;;;;;6.67;3.77;;;;;;;;;;704843;195;919114;-69
2021/01/22 14:08:02;;;;;;;17.92;9.63;;;;;;;;;;719447;194;919146;-70
2021/01/22 14:10:27;;;;;;;12.53;8.67;;;;;;;;;;704914;198;918860;-69
2021/01/22 14:12:55;;;;;;;13.57;8.53;;;;;;;;;;712726;194;1432332;-70
2021/01/22 14:15:19;;;;;;;15.27;9.00;;;;;;;;;;724331;194;617674;-70
2021/01/22 14:17:45;;;;;;;15.90;10.17;;;;;;;;;;698759;195;919506;-69